Wainwright, AK

6:46 AM AKDT on July 28, 2016 (GMT -0800)
Wainwright | | Change Station

Elev 39 ft 70.64 °N, 159.99 °W | Updated 21 minutes ago

Overcast
Overcast
36 °F
Feels Like 28 °F
N
10
Wind Variable Wind from North

Today
High -- | Low -- °F
--% Chance of Precip.
Yesterday
High -- | Low -- °F
Precip. -- in
Pressure 29.59 in
Visibility 10.0 miles
Clouds Scattered Clouds 200 ft
Overcast 2500 ft
Windchill 28 °F
Dew Point 34 °F
Humidity 93%
Rainfall 0.00 in
Snow Depth Not available.
3:18 AM 2:14 AM
Waning Crescent, 31% visible
SPECI PAWI 281425Z AUTO 35009KT 10SM SCT002 OVC025 02/01 A2959 RMK AO2 T00220011 TSNO
Pressure 29.59 in
Visibility 10.0 miles
Clouds Scattered Clouds 200 ft
Overcast 2500 ft
Windchill 28 °F
Dew Point 34 °F
Humidity 93%
Rainfall 0.00 in
Snow Depth Not available.
3:18 AM 2:14 AM
Waning Crescent, 31% visible
SPECI PAWI 281425Z AUTO 35009KT 10SM SCT002 OVC025 02/01 A2959 RMK AO2 T00220011 TSNO

10-Day Weather Forecast

Almanac

Astronomy

Jul. 28, 2016 Rise Set
Actual Time
Civil Twilight
Nautical Twilight
Astronomical Twilight
Moon
Length of Visible Light
Length of Day
Tomorrow will be .
, % of the Moon is Illuminated

Today's Extremes

State Highs State Lows

Community

WunderPhotos

Upload Photos

1,928,117 photos uploaded!

WunderBlog® & News

Nearby

Air Quality

  Air Quality AQ Index Pollutant
Not available.

Snow Depth

Station Depth Elevation

Earthquake Activity

City Distance Mag. Time & Date
Minimum magnitude displayed is 2.5.

Coastal Water Temperatures

Place Temperature

Stations

Nearby Weather Stations

Station Location Temp. Windchill Dew Point Humidity Wind Precip. Elev Updated Type
                   

Watches & Warnings

There are currently no watches in effect.